Portier 1 — WDE6685 — position and weather

sailwx.info

Track history (hours):
 
Tides and Currents Weather Stations Pressure Air Temp Water Temp Dewpoint Dewpoint Depression Visibility Wind Speed Wind Dir Waves Ship Positions

Portier 1

Owner: Portier Shipyard Inc., Chauvin, LA. More information available from US FCC via Universal Licensing System and Coast Guard Vessel Documentation Center.

Last reported at 2017-Dec-29 21:41 UTC. Time now 2018-Jan-24 11:27 UTC.
Position N 29°33' W 090°28'.
Warning: this ship's position is 25 days out of date.

Length 22 m; draft 7 m.

Type: Tug. MMSI: 367383370.

Date/timePositionNaut miles runAvg speedWind from/ knotsBaromVisibWave heightAir tempDewpointWater temp
2017-Dec-29 21:41N 29°33' W 090°28'1 7.2
2017-Dec-29 21:28N 29°34' W 090°30'3 7.2
2017-Dec-29 21:00N 29°34' W 090°34'3 6.0
2017-Dec-29 20:30N 29°35' W 090°37'3 7.0
2017-Dec-29 20:00N 29°36' W 090°41'2 4.1
2017-Dec-29 19:30N 29°35' W 090°43'1 2.8
2017-Dec-29 19:00N 29°34' W 090°43'0 0.0
2017-Dec-29 18:30N 29°34' W 090°43'0 0.6
2017-Dec-29 18:00N 29°34' W 090°43'0 0.6
2017-Dec-29 17:30N 29°34' W 090°42'0 0.0
2017-Dec-29 17:00N 29°34' W 090°42'0 0.0
2017-Dec-29 16:30N 29°34' W 090°42'0 0.9
2017-Dec-29 16:00N 29°34' W 090°42'0 0.0
2017-Dec-29 15:30N 29°34' W 090°42'0 1.0
2017-Dec-29 15:00N 29°33' W 090°43'2 3.2
2017-Dec-29 14:30N 29°35' W 090°43'1 2.4
2017-Dec-29 14:00N 29°36' W 090°43'1 2.3
2017-Dec-29 13:30N 29°37' W 090°41'0 0.0
2017-Dec-29 13:00N 29°37' W 090°41'0 0.1
2017-Dec-29 12:30N 29°36' W 090°41'2 3.2
2017-Dec-29 12:00N 29°35' W 090°43'2 3.1
2017-Dec-29 11:30N 29°34' W 090°42'0 0.0
2017-Dec-29 11:00N 29°34' W 090°42'0 0.0
2017-Dec-29 10:30N 29°34' W 090°42'0 0.0
2017-Dec-29 10:00N 29°34' W 090°42'0 0.0
2017-Dec-29 09:30N 29°34' W 090°42'0 0.0
2017-Dec-29 09:00N 29°34' W 090°42'0 0.0
2017-Dec-29 08:30N 29°34' W 090°42'0 0.0
2017-Dec-29 08:00N 29°34' W 090°42'0 0.0
2017-Dec-29 07:30N 29°34' W 090°42'0 0.0
2017-Dec-29 06:12N 29°34' W 090°42'0 0.0
2017-Dec-29 04:29N 29°34' W 090°42'0 0.0
2017-Dec-29 03:55N 29°34' W 090°42'0 0.0
2017-Dec-29 03:29N 29°34' W 090°42'0 0.0
2017-Dec-29 02:55N 29°34' W 090°42'0 0.0
2017-Dec-29 02:28N 29°34' W 090°42'0 0.0
2017-Dec-29 01:53N 29°34' W 090°42'0 0.0
2017-Dec-29 01:26N 29°34' W 090°42'0 0.0
2017-Dec-29 00:53N 29°34' W 090°42'0 0.0
2017-Dec-29 00:25N 29°34' W 090°42'0 0.0
2017-Dec-29 00:00N 29°34' W 090°42'0 0.0
2017-Dec-28 23:30N 29°34' W 090°42'0 0.0
2017-Dec-28 23:00N 29°34' W 090°42'0 0.0
2017-Dec-28 22:30N 29°34' W 090°42'0 0.0
2017-Dec-28 22:00N 29°34' W 090°42'0 0.0
2017-Dec-28 21:30N 29°34' W 090°42'0 0.0
2017-Dec-28 21:00N 29°34' W 090°42'0 0.0
2017-Dec-28 20:30N 29°34' W 090°42'0 0.0
2017-Dec-28 20:00N 29°34' W 090°42'0 0.0
2017-Dec-28 19:30N 29°34' W 090°42'0 0.0
2017-Dec-28 19:00N 29°34' W 090°42'0 0.0
2017-Dec-28 18:30N 29°34' W 090°42'0 0.0
2017-Dec-28 18:00N 29°34' W 090°42'0 0.0
2017-Dec-28 17:30N 29°34' W 090°42'0 0.0
2017-Dec-28 17:00N 29°34' W 090°42'0 0.0
2017-Dec-28 16:30N 29°34' W 090°42'0 0.0
2017-Dec-28 16:00N 29°34' W 090°42'0 0.0
2017-Dec-28 15:30N 29°34' W 090°42'0 0.0
2017-Dec-28 15:00N 29°34' W 090°42'0 0.0
2017-Dec-28 14:30N 29°34' W 090°42'0 0.0
2017-Dec-28 14:00N 29°34' W 090°42'0 0.0
2017-Dec-28 13:30N 29°34' W 090°42'0 0.0
2017-Dec-28 13:00N 29°34' W 090°42'0 0.0
2017-Dec-28 12:30N 29°34' W 090°42'0 0.0
2017-Dec-28 12:00N 29°34' W 090°42'0 0.0
2017-Dec-28 11:30N 29°34' W 090°42'0 0.0
2017-Dec-28 11:00N 29°34' W 090°42'0 0.0
2017-Dec-28 10:30N 29°34' W 090°42'0 0.0
2017-Dec-28 10:00N 29°34' W 090°42'0 0.0
2017-Dec-28 09:30N 29°34' W 090°42'0 0.0
2017-Dec-28 09:00N 29°34' W 090°42'0 0.0
2017-Dec-28 08:30N 29°34' W 090°42'0 0.0
2017-Dec-28 08:00N 29°34' W 090°42'0 0.0
2017-Dec-28 07:30N 29°34' W 090°42'0 0.0
2017-Dec-28 07:00N 29°34' W 090°42'0 0.0
2017-Dec-28 06:30N 29°34' W 090°42'0 0.0
2017-Dec-28 06:00N 29°34' W 090°42'0 0.0
2017-Dec-28 05:30N 29°34' W 090°42'0 0.0
2017-Dec-28 05:00N 29°34' W 090°42'0 0.0
2017-Dec-28 04:30N 29°34' W 090°42'0 0.0
2017-Dec-28 04:00N 29°34' W 090°42'0 0.0
2017-Dec-28 03:30N 29°34' W 090°42'0 0.0
2017-Dec-28 03:00N 29°34' W 090°42'0 0.0
2017-Dec-28 02:30N 29°34' W 090°42'0 0.0
2017-Dec-28 02:00N 29°34' W 090°42'0 0.0
2017-Dec-28 01:30N 29°34' W 090°42'0 0.0
2017-Dec-28 01:00N 29°34' W 090°42'0 0.0
2017-Dec-28 00:30N 29°34' W 090°42'0 0.0
2017-Dec-28 00:00N 29°34' W 090°42'0 0.0
2017-Dec-27 23:30N 29°34' W 090°42'0 0.0
2017-Dec-27 23:00N 29°34' W 090°42'0 0.0
2017-Dec-27 22:30N 29°34' W 090°42'0 0.0
2017-Dec-27 22:00N 29°34' W 090°42'0 0.0
2017-Dec-27 21:30N 29°34' W 090°42'0 0.0
2017-Dec-27 21:00N 29°34' W 090°42'0 0.0
2017-Dec-27 20:30N 29°34' W 090°42'0 0.0
2017-Dec-27 20:00N 29°34' W 090°42'0 0.0
2017-Dec-27 19:30N 29°34' W 090°42'0 0.0
2017-Dec-27 19:00N 29°34' W 090°42'0 0.0
2017-Dec-27 18:30N 29°34' W 090°42'0 0.0
2017-Dec-27 18:00N 29°34' W 090°42'0 0.0
2017-Dec-27 17:30N 29°34' W 090°42'0 0.0
2017-Dec-27 17:00N 29°34' W 090°42'0 0.0
2017-Dec-27 16:30N 29°34' W 090°42'0 0.0
2017-Dec-27 16:00N 29°34' W 090°42'0 0.0
2017-Dec-27 15:30N 29°34' W 090°42'0 0.0
2017-Dec-27 15:00N 29°34' W 090°42'0 0.0
2017-Dec-27 14:30N 29°34' W 090°42'0 0.0
2017-Dec-27 14:00N 29°34' W 090°42'0 0.0
2017-Dec-27 13:30N 29°34' W 090°42'0 0.0
2017-Dec-27 13:00N 29°34' W 090°42'0 0.0
2017-Dec-27 12:31N 29°34' W 090°42'0 0.0
2017-Dec-26 21:54N 29°34' W 090°42'0 0.0
2017-Dec-26 21:30N 29°34' W 090°42'0 0.0
2017-Dec-26 21:00N 29°34' W 090°42'0 0.0
2017-Dec-26 20:30N 29°34' W 090°42'0 0.0
2017-Dec-26 20:00N 29°34' W 090°42'0 0.0
2017-Dec-26 19:30N 29°34' W 090°42'0 0.0
2017-Dec-26 19:00N 29°34' W 090°42'0 0.0
2017-Dec-26 18:30N 29°34' W 090°42'0 0.0
2017-Dec-26 18:00N 29°34' W 090°42'0 0.0
2017-Dec-26 17:30N 29°34' W 090°42'0 0.0
2017-Dec-26 17:00N 29°34' W 090°42'0 0.0
2017-Dec-26 16:30N 29°34' W 090°42'0 0.0
2017-Dec-26 16:00N 29°34' W 090°42'0 0.0
2017-Dec-26 15:30N 29°34' W 090°42'0 0.0
2017-Dec-26 15:00N 29°34' W 090°42'0 0.0
2017-Dec-26 14:30N 29°34' W 090°42'0 0.0
2017-Dec-26 14:00N 29°34' W 090°42'0 0.0
2017-Dec-26 13:30N 29°34' W 090°42'0 0.0
2017-Dec-26 13:00N 29°34' W 090°42'0 0.0
2017-Dec-25 01:22N 29°34' W 090°42'1 1.9
2017-Dec-25 01:00N 29°33' W 090°42'4 7.4
2017-Dec-25 00:30N 29°29' W 090°43'4 7.6
2017-Dec-24 23:55N 29°25' W 090°43'2 0.2
2017-Dec-24 14:09N 29°23' W 090°44'2 4.9
2017-Dec-24 13:40N 29°25' W 090°43'1 4.8
2017-Dec-24 13:30N 29°26' W 090°43'2 4.8
2017-Dec-24 13:00N 29°28' W 090°43'2 4.8
2017-Dec-24 12:30N 29°31' W 090°43'2 4.6
2017-Dec-24 12:00N 29°33' W 090°42'1 1.8
2017-Dec-24 11:30N 29°34' W 090°42'0 0.1
2017-Dec-24 11:00N 29°34' W 090°42'0 0.5
2017-Dec-24 10:30N 29°34' W 090°42'0 0.0
2017-Dec-24 10:00N 29°34' W 090°42'0 0.0
2017-Dec-24 09:30N 29°34' W 090°42'0 0.0
2017-Dec-24 09:00N 29°34' W 090°42'0 0.0
2017-Dec-24 08:30N 29°34' W 090°42'0 0.0
2017-Dec-24 08:00N 29°34' W 090°42'0 0.0
2017-Dec-24 07:30N 29°34' W 090°42'0 0.0
2017-Dec-24 07:00N 29°34' W 090°42'0 0.0
2017-Dec-24 06:30N 29°34' W 090°42'0 0.0
2017-Dec-24 06:00N 29°34' W 090°42'0 0.0
2017-Dec-24 05:30N 29°34' W 090°42'0 0.0
2017-Dec-24 05:00N 29°34' W 090°42'0 0.0
2017-Dec-24 04:30N 29°34' W 090°42'0 0.0
2017-Dec-24 04:00N 29°34' W 090°42'0 0.0
2017-Dec-24 03:30N 29°34' W 090°42'0 0.0
2017-Dec-24 03:00N 29°34' W 090°42'0 0.0
2017-Dec-24 02:30N 29°34' W 090°42'0 0.0
2017-Dec-24 02:00N 29°34' W 090°42'0 0.0
2017-Dec-24 01:30N 29°34' W 090°42'1 2.5
2017-Dec-24 01:00N 29°35' W 090°43'2 4.4
2017-Dec-24 00:30N 29°36' W 090°41'1 1.8
2017-Dec-24 00:00N 29°36' W 090°40'2 4.9
2017-Dec-23 23:30N 29°36' W 090°43'2 3.6
2017-Dec-23 23:00N 29°34' W 090°43'0 0.1
2017-Dec-23 22:30N 29°34' W 090°43'1 1.3
2017-Dec-23 22:00N 29°34' W 090°42'0 0.1
2017-Dec-23 21:30N 29°34' W 090°42'1 2.5
2017-Dec-23 21:00N 29°33' W 090°42'2 4.0
2017-Dec-23 20:30N 29°34' W 090°43'2 4.8
2017-Dec-23 20:00N 29°37' W 090°42'1 2.6
2017-Dec-23 19:30N 29°36' W 090°41'2 4.7
2017-Dec-23 19:00N 29°35' W 090°38'3 5.1
2017-Dec-23 18:30N 29°35' W 090°36'3 5.2
2017-Dec-23 17:59N 29°34' W 090°33'4 0.2
2017-Dec-22 17:13N 29°33' W 090°28'2 7.8
2017-Dec-22 17:00N 29°34' W 090°30'4 7.6
2017-Dec-22 16:30N 29°34' W 090°34'2 4.5
2017-Dec-22 16:00N 29°35' W 090°37'4 7.5
2017-Dec-22 15:30N 29°36' W 090°41'2 5.0
2017-Dec-22 15:00N 29°35' W 090°43'1 1.9
2017-Dec-22 14:30N 29°34' W 090°42'0 0.0
2017-Dec-22 14:00N 29°34' W 090°42'  
Track history (hours):
 
Tides and Currents Weather Stations Pressure Air Temp Water Temp Dewpoint Dewpoint Depression Visibility Wind Speed Wind Dir Waves Ship Positions

Portier 1

Owner: Portier Shipyard Inc., Chauvin, LA. More information available from US FCC via Universal Licensing System and Coast Guard Vessel Documentation Center.

Last reported at 2017-Dec-29 21:41 UTC. Time now 2018-Jan-24 11:27 UTC.
Position N 29°33' W 090°28'.
Warning: this ship's position is 25 days out of date.

Length 22 m; draft 7 m.

Type: Tug. MMSI: 367383370.

Date/timePositionNaut miles runAvg speedWind from/ knotsBaromVisibWave heightAir tempDewpointWater temp
2017-Dec-29 21:41N 29°33' W 090°28'1 7.2
2017-Dec-29 21:28N 29°34' W 090°30'3 7.2
2017-Dec-29 21:00N 29°34' W 090°34'3 6.0
2017-Dec-29 20:30N 29°35' W 090°37'3 7.0
2017-Dec-29 20:00N 29°36' W 090°41'2 4.1
2017-Dec-29 19:30N 29°35' W 090°43'1 2.8
2017-Dec-29 19:00N 29°34' W 090°43'0 0.0
2017-Dec-29 18:30N 29°34' W 090°43'0 0.6
2017-Dec-29 18:00N 29°34' W 090°43'0 0.6
2017-Dec-29 17:30N 29°34' W 090°42'0 0.0
2017-Dec-29 17:00N 29°34' W 090°42'0 0.0
2017-Dec-29 16:30N 29°34' W 090°42'0 0.9
2017-Dec-29 16:00N 29°34' W 090°42'0 0.0
2017-Dec-29 15:30N 29°34' W 090°42'0 1.0
2017-Dec-29 15:00N 29°33' W 090°43'2 3.2
2017-Dec-29 14:30N 29°35' W 090°43'1 2.4
2017-Dec-29 14:00N 29°36' W 090°43'1 2.3
2017-Dec-29 13:30N 29°37' W 090°41'0 0.0
2017-Dec-29 13:00N 29°37' W 090°41'0 0.1
2017-Dec-29 12:30N 29°36' W 090°41'2 3.2
2017-Dec-29 12:00N 29°35' W 090°43'2 3.1
2017-Dec-29 11:30N 29°34' W 090°42'0 0.0
2017-Dec-29 11:00N 29°34' W 090°42'0 0.0
2017-Dec-29 10:30N 29°34' W 090°42'0 0.0
2017-Dec-29 10:00N 29°34' W 090°42'0 0.0
2017-Dec-29 09:30N 29°34' W 090°42'0 0.0
2017-Dec-29 09:00N 29°34' W 090°42'0 0.0
2017-Dec-29 08:30N 29°34' W 090°42'0 0.0
2017-Dec-29 08:00N 29°34' W 090°42'0 0.0
2017-Dec-29 07:30N 29°34' W 090°42'0 0.0
2017-Dec-29 06:12N 29°34' W 090°42'0 0.0
2017-Dec-29 04:29N 29°34' W 090°42'0 0.0
2017-Dec-29 03:55N 29°34' W 090°42'0 0.0
2017-Dec-29 03:29N 29°34' W 090°42'0 0.0
2017-Dec-29 02:55N 29°34' W 090°42'0 0.0
2017-Dec-29 02:28N 29°34' W 090°42'0 0.0
2017-Dec-29 01:53N 29°34' W 090°42'0 0.0
2017-Dec-29 01:26N 29°34' W 090°42'0 0.0
2017-Dec-29 00:53N 29°34' W 090°42'0 0.0
2017-Dec-29 00:25N 29°34' W 090°42'0 0.0
2017-Dec-29 00:00N 29°34' W 090°42'0 0.0
2017-Dec-28 23:30N 29°34' W 090°42'0 0.0
2017-Dec-28 23:00N 29°34' W 090°42'0 0.0
2017-Dec-28 22:30N 29°34' W 090°42'0 0.0
2017-Dec-28 22:00N 29°34' W 090°42'0 0.0
2017-Dec-28 21:30N 29°34' W 090°42'0 0.0
2017-Dec-28 21:00N 29°34' W 090°42'0 0.0
2017-Dec-28 20:30N 29°34' W 090°42'0 0.0
2017-Dec-28 20:00N 29°34' W 090°42'0 0.0
2017-Dec-28 19:30N 29°34' W 090°42'0 0.0
2017-Dec-28 19:00N 29°34' W 090°42'0 0.0
2017-Dec-28 18:30N 29°34' W 090°42'0 0.0
2017-Dec-28 18:00N 29°34' W 090°42'0 0.0
2017-Dec-28 17:30N 29°34' W 090°42'0 0.0
2017-Dec-28 17:00N 29°34' W 090°42'0 0.0
2017-Dec-28 16:30N 29°34' W 090°42'0 0.0
2017-Dec-28 16:00N 29°34' W 090°42'0 0.0
2017-Dec-28 15:30N 29°34' W 090°42'0 0.0
2017-Dec-28 15:00N 29°34' W 090°42'0 0.0
2017-Dec-28 14:30N 29°34' W 090°42'0 0.0
2017-Dec-28 14:00N 29°34' W 090°42'0 0.0
2017-Dec-28 13:30N 29°34' W 090°42'0 0.0
2017-Dec-28 13:00N 29°34' W 090°42'0 0.0
2017-Dec-28 12:30N 29°34' W 090°42'0 0.0
2017-Dec-28 12:00N 29°34' W 090°42'0 0.0
2017-Dec-28 11:30N 29°34' W 090°42'0 0.0
2017-Dec-28 11:00N 29°34' W 090°42'0 0.0
2017-Dec-28 10:30N 29°34' W 090°42'0 0.0
2017-Dec-28 10:00N 29°34' W 090°42'0 0.0
2017-Dec-28 09:30N 29°34' W 090°42'0 0.0
2017-Dec-28 09:00N 29°34' W 090°42'0 0.0
2017-Dec-28 08:30N 29°34' W 090°42'0 0.0
2017-Dec-28 08:00N 29°34' W 090°42'0 0.0
2017-Dec-28 07:30N 29°34' W 090°42'0 0.0
2017-Dec-28 07:00N 29°34' W 090°42'0 0.0
2017-Dec-28 06:30N 29°34' W 090°42'0 0.0
2017-Dec-28 06:00N 29°34' W 090°42'0 0.0
2017-Dec-28 05:30N 29°34' W 090°42'0 0.0
2017-Dec-28 05:00N 29°34' W 090°42'0 0.0
2017-Dec-28 04:30N 29°34' W 090°42'0 0.0
2017-Dec-28 04:00N 29°34' W 090°42'0 0.0
2017-Dec-28 03:30N 29°34' W 090°42'0 0.0
2017-Dec-28 03:00N 29°34' W 090°42'0 0.0
2017-Dec-28 02:30N 29°34' W 090°42'0 0.0
2017-Dec-28 02:00N 29°34' W 090°42'0 0.0
2017-Dec-28 01:30N 29°34' W 090°42'0 0.0
2017-Dec-28 01:00N 29°34' W 090°42'0 0.0
2017-Dec-28 00:30N 29°34' W 090°42'0 0.0
2017-Dec-28 00:00N 29°34' W 090°42'0 0.0
2017-Dec-27 23:30N 29°34' W 090°42'0 0.0
2017-Dec-27 23:00N 29°34' W 090°42'0 0.0
2017-Dec-27 22:30N 29°34' W 090°42'0 0.0
2017-Dec-27 22:00N 29°34' W 090°42'0 0.0
2017-Dec-27 21:30N 29°34' W 090°42'0 0.0
2017-Dec-27 21:00N 29°34' W 090°42'0 0.0
2017-Dec-27 20:30N 29°34' W 090°42'0 0.0
2017-Dec-27 20:00N 29°34' W 090°42'0 0.0
2017-Dec-27 19:30N 29°34' W 090°42'0 0.0
2017-Dec-27 19:00N 29°34' W 090°42'0 0.0
2017-Dec-27 18:30N 29°34' W 090°42'0 0.0
2017-Dec-27 18:00N 29°34' W 090°42'0 0.0
2017-Dec-27 17:30N 29°34' W 090°42'0 0.0
2017-Dec-27 17:00N 29°34' W 090°42'0 0.0
2017-Dec-27 16:30N 29°34' W 090°42'0 0.0
2017-Dec-27 16:00N 29°34' W 090°42'0 0.0
2017-Dec-27 15:30N 29°34' W 090°42'0 0.0
2017-Dec-27 15:00N 29°34' W 090°42'0 0.0
2017-Dec-27 14:30N 29°34' W 090°42'0 0.0
2017-Dec-27 14:00N 29°34' W 090°42'0 0.0
2017-Dec-27 13:30N 29°34' W 090°42'0 0.0
2017-Dec-27 13:00N 29°34' W 090°42'0 0.0
2017-Dec-27 12:31N 29°34' W 090°42'0 0.0
2017-Dec-26 21:54N 29°34' W 090°42'0 0.0
2017-Dec-26 21:30N 29°34' W 090°42'0 0.0
2017-Dec-26 21:00N 29°34' W 090°42'0 0.0
2017-Dec-26 20:30N 29°34' W 090°42'0 0.0
2017-Dec-26 20:00N 29°34' W 090°42'0 0.0
2017-Dec-26 19:30N 29°34' W 090°42'0 0.0
2017-Dec-26 19:00N 29°34' W 090°42'0 0.0
2017-Dec-26 18:30N 29°34' W 090°42'0 0.0
2017-Dec-26 18:00N 29°34' W 090°42'0 0.0
2017-Dec-26 17:30N 29°34' W 090°42'0 0.0
2017-Dec-26 17:00N 29°34' W 090°42'0 0.0
2017-Dec-26 16:30N 29°34' W 090°42'0 0.0
2017-Dec-26 16:00N 29°34' W 090°42'0 0.0
2017-Dec-26 15:30N 29°34' W 090°42'0 0.0
2017-Dec-26 15:00N 29°34' W 090°42'0 0.0
2017-Dec-26 14:30N 29°34' W 090°42'0 0.0
2017-Dec-26 14:00N 29°34' W 090°42'0 0.0
2017-Dec-26 13:30N 29°34' W 090°42'0 0.0
2017-Dec-26 13:00N 29°34' W 090°42'0 0.0
2017-Dec-25 01:22N 29°34' W 090°42'1 1.9
2017-Dec-25 01:00N 29°33' W 090°42'4 7.4
2017-Dec-25 00:30N 29°29' W 090°43'4 7.6
2017-Dec-24 23:55N 29°25' W 090°43'2 0.2
2017-Dec-24 14:09N 29°23' W 090°44'2 4.9
2017-Dec-24 13:40N 29°25' W 090°43'1 4.8
2017-Dec-24 13:30N 29°26' W 090°43'2 4.8
2017-Dec-24 13:00N 29°28' W 090°43'2 4.8
2017-Dec-24 12:30N 29°31' W 090°43'2 4.6
2017-Dec-24 12:00N 29°33' W 090°42'1 1.8
2017-Dec-24 11:30N 29°34' W 090°42'0 0.1
2017-Dec-24 11:00N 29°34' W 090°42'0 0.5
2017-Dec-24 10:30N 29°34' W 090°42'0 0.0
2017-Dec-24 10:00N 29°34' W 090°42'0 0.0
2017-Dec-24 09:30N 29°34' W 090°42'0 0.0
2017-Dec-24 09:00N 29°34' W 090°42'0 0.0
2017-Dec-24 08:30N 29°34' W 090°42'0 0.0
2017-Dec-24 08:00N 29°34' W 090°42'0 0.0
2017-Dec-24 07:30N 29°34' W 090°42'0 0.0
2017-Dec-24 07:00N 29°34' W 090°42'0 0.0
2017-Dec-24 06:30N 29°34' W 090°42'0 0.0
2017-Dec-24 06:00N 29°34' W 090°42'0 0.0
2017-Dec-24 05:30N 29°34' W 090°42'0 0.0
2017-Dec-24 05:00N 29°34' W 090°42'0 0.0
2017-Dec-24 04:30N 29°34' W 090°42'0 0.0
2017-Dec-24 04:00N 29°34' W 090°42'0 0.0
2017-Dec-24 03:30N 29°34' W 090°42'0 0.0
2017-Dec-24 03:00N 29°34' W 090°42'0 0.0
2017-Dec-24 02:30N 29°34' W 090°42'0 0.0
2017-Dec-24 02:00N 29°34' W 090°42'0 0.0
2017-Dec-24 01:30N 29°34' W 090°42'1 2.5
2017-Dec-24 01:00N 29°35' W 090°43'2 4.4
2017-Dec-24 00:30N 29°36' W 090°41'1 1.8
2017-Dec-24 00:00N 29°36' W 090°40'2 4.9
2017-Dec-23 23:30N 29°36' W 090°43'2 3.6
2017-Dec-23 23:00N 29°34' W 090°43'0 0.1
2017-Dec-23 22:30N 29°34' W 090°43'1 1.3
2017-Dec-23 22:00N 29°34' W 090°42'0 0.1
2017-Dec-23 21:30N 29°34' W 090°42'1 2.5
2017-Dec-23 21:00N 29°33' W 090°42'2 4.0
2017-Dec-23 20:30N 29°34' W 090°43'2 4.8
2017-Dec-23 20:00N 29°37' W 090°42'1 2.6
2017-Dec-23 19:30N 29°36' W 090°41'2 4.7
2017-Dec-23 19:00N 29°35' W 090°38'3 5.1
2017-Dec-23 18:30N 29°35' W 090°36'3 5.2
2017-Dec-23 17:59N 29°34' W 090°33'4 0.2
2017-Dec-22 17:13N 29°33' W 090°28'2 7.8
2017-Dec-22 17:00N 29°34' W 090°30'4 7.6
2017-Dec-22 16:30N 29°34' W 090°34'2 4.5
2017-Dec-22 16:00N 29°35' W 090°37'4 7.5
2017-Dec-22 15:30N 29°36' W 090°41'2 5.0
2017-Dec-22 15:00N 29°35' W 090°43'1 1.9
2017-Dec-22 14:30N 29°34' W 090°42'0 0.0
2017-Dec-22 14:00N 29°34' W 090°42'  

Dump ship's entire track history